Flight Track Log - Related Links

Times and Time Zones

All times are in EDT time to prevent confusion due to time zone crossing. See the UCA3598 flight status page for this flight to view local times or setup timezone preferences in your user account.

Time Position Orientation Groundspeed Altitude Reporting Facility
EDT Latitude Longitude Course Direction KTS MPH feet Rate Location/Type
Tue 10:17:13 PM 39.0000 -77.4667 North 160 184 2,700  Level Potomac TRACON
Tue 10:19:34 PM 39.1019 -77.5333 333° Northwest 175 201 6,200 1,522 Climbing Washington Center
Tue 10:20:34 PM 39.1494 -77.5614 335° Northwest 175 201 7,800 1,500 Climbing Washington Center
Tue 10:21:00 PM 39.3225 -77.2973 North  Level Estimated
Tue 10:21:34 PM 39.1950 -77.5867 337° Northwest 175 201 9,200  Level Washington Center
Tue 10:22:00 PM 39.3849 -77.2700 North  Level Estimated
Tue 10:22:32 PM 39.2450 -77.5856 North 169 194 10,600  Level Washington Center
Tue 10:23:33 PM 39.2953 -77.5681 15° North 169 194 11,900 744 Climbing Washington Center
Tue 10:24:33 PM 39.3519 -77.5481 15° North 188 216 12,100 101 Climbing Washington Center
Tue 10:25:32 PM 39.4189 -77.5286 13° North 216 249 12,100 750 Level Washington Center
Tue 10:26:33 PM 39.4817 -77.5086 14° North 226 260 13,600 1,155 Climbing Washington Center
Tue 10:28:13 PM 39.5767 -77.4783 14° North 214 246 15,200 906 Climbing New Center
Tue 10:29:12 PM 39.6319 -77.4592 15° North 201 231 16,000 793 Climbing New Center
Tue 10:30:14 PM 39.6844 -77.4533 North 201 231 16,800 836 Climbing New Center
Tue 10:31:14 PM 39.7511 -77.4517 North 206 237 17,700 857 Climbing New Center
Tue 10:32:13 PM 39.8011 -77.4536 358° North 206 237 18,500 650 Climbing New Center
Tue 10:33:14 PM 39.8681 -77.4519 North 211 243 19,000 252 Climbing New Center
Tue 10:34:12 PM 39.9283 -77.4522 360° North 225 259 19,000  Level New Center
Tue 10:35:12 PM 40.0058 -77.4489 North 242 278 19,000  Level New Center
Tue 10:36:13 PM 40.0706 -77.4469 North 252 290 19,000  Level New Center
Tue 10:37:12 PM 40.1497 -77.4464 360° North 252 290 19,000  Level New Center
Tue 10:38:12 PM 40.2164 -77.4472 359° North 252 290 19,000  Level New Center
Tue 10:39:13 PM 40.2958 -77.4442 North 257 296 19,000  Level New Center
Tue 10:40:14 PM 40.3625 -77.4450 359° North 257 296 19,000  Level New Center
Tue 10:41:14 PM 40.4439 -77.4447 360° North 257 296 19,000  Level New Center
Tue 10:42:12 PM 40.5106 -77.4431 North 257 296 19,000  Level New Center
Tue 10:43:12 PM 40.5900 -77.4425 360° North 257 296 19,000  Level New Center
Tue 10:44:11 PM 40.6561 -77.4161 17° North 257 296 19,000  Level New Center
Tue 10:45:12 PM 40.7175 -77.3592 35° Northeast 263 303 19,000 -198 Level New Center
Tue 10:46:12 PM 40.7789 -77.3075 33° Northeast 263 303 18,600 -450 Descending New Center
Tue 10:47:12 PM 40.8425 -77.2475 36° Northeast 268 308 18,100 -496 Descending New Center
Tue 10:48:13 PM 40.9061 -77.1906 34° Northeast 274 315 17,600 -492 Descending New Center
Tue 10:49:14 PM 40.9719 -77.1306 35° Northeast 274 315 17,100 -248 Descending New Center
Tue 10:50:14 PM 41.0356 -77.0706 35° Northeast 274 315 17,100 -51 Level New Center
Tue 10:51:12 PM 41.0967 -77.0156 34° Northeast 274 315 17,000 -50 Descending New Center
Tue 10:52:13 PM 41.1600 -76.9608 33° Northeast 274 315 17,000  Level New Center
Tue 10:53:11 PM 41.2211 -76.9058 34° Northeast 274 315 17,000 50 Level New Center
Tue 10:54:12 PM 41.2825 -76.8478 35° Northeast 274 315 17,100  Climbing New Center
Tue 10:55:12 PM 41.3436 -76.7953 33° Northeast 269 310 17,000  Descending New Center
Tue 10:56:11 PM 41.4047 -76.7372 35° Northeast 269 310 17,100 -50 Climbing New Center
Tue 10:57:11 PM 41.4706 -76.6711 37° Northeast 269 310 16,900 -793 Descending New Center
Tue 10:58:12 PM 41.5339 -76.6156 33° Northeast 274 315 15,500 -1,415 Descending New Center
Tue 10:59:14 PM 41.5972 -76.5544 36° Northeast 274 315 14,000 -1,462 Descending New Center
Tue 11:00:11 PM 41.6581 -76.4986 34° Northeast 281 323 12,600 -1,487 Descending New Center
Tue 11:01:11 PM 41.7214 -76.4375 36° Northeast 281 323 11,100 -1,488 Descending New Center
Tue 11:02:12 PM 41.7844 -76.3817 33° Northeast 276 318 9,600 -1,525 Descending New Center
Tue 11:03:13 PM 41.8500 -76.3203 35° Northeast 271 312 8,000 -1,550 Descending New Center
Tue 11:04:12 PM 41.9086 -76.2667 34° Northeast 266 306 6,500 -1,424 Descending New Center
Tue 11:05:11 PM 41.9531 -76.2089 44° Northeast 242 278 5,200 -1,200 Descending New Center
Tue 11:06:12 PM 42.0058 -76.1436 43° Northeast 230 265 4,100 -590 Descending New Center
Tue 11:07:13 PM 42.0542 -76.0889 40° Northeast 219 252 4,000 -50 Descending New Center
Tue 11:08:12 PM 42.1025 -76.0311 42° Northeast 219 252 4,000 -50 Level New Center
Tue 11:09:12 PM 42.1361 -75.9781 49° Northeast 209 241 3,900 -744 Descending New Center
Tue 11:10:13 PM 42.1606 -75.9436 46° Northeast 164 189 2,500 -934 Descending New Center
Tue 11:11:14 PM 42.1869 -75.9594 336° Northwest 99 114 2,000 -254 Descending New Center
Tue 11:12:11 PM 42.2106 -75.9392 32° Northeast 99 114 2,000  Level New Center

Login

Don't have an account? Register now (free) for customized features, flight alerts, and more!